sensor_id;sensor_type;location;lat;lon;timestamp;pressure;altitude;pressure_sealevel;temperature;humidity
44131;BME280;29792;48.726;9.248;2024-02-14T00:00:18;97309.03;;;3.13;100.00
44131;BME280;29792;48.726;9.248;2024-02-14T00:02:44;97309.78;;;3.15;100.00
44131;BME280;29792;48.726;9.248;2024-02-14T00:05:10;97312.97;;;3.19;100.00
44131;BME280;29792;48.726;9.248;2024-02-14T00:07:36;97310.31;;;3.22;100.00
44131;BME280;29792;48.726;9.248;2024-02-14T00:10:02;97317.69;;;3.26;100.00
44131;BME280;29792;48.726;9.248;2024-02-14T00:12:27;97318.38;;;3.30;100.00
44131;BME280;29792;48.726;9.248;2024-02-14T00:14:52;97316.44;;;3.35;100.00
44131;BME280;29792;48.726;9.248;2024-02-14T00:17:18;97320.47;;;3.39;100.00
44131;BME280;29792;48.726;9.248;2024-02-14T00:19:43;97314.44;;;3.41;100.00
44131;BME280;29792;48.726;9.248;2024-02-14T00:22:08;97318.59;;;3.42;100.00
44131;BME280;29792;48.726;9.248;2024-02-14T00:24:34;97324.50;;;3.43;100.00
44131;BME280;29792;48.726;9.248;2024-02-14T00:27:01;97327.78;;;3.45;100.00
44131;BME280;29792;48.726;9.248;2024-02-14T00:29:28;97327.78;;;3.45;100.00
44131;BME280;29792;48.726;9.248;2024-02-14T00:31:53;97322.78;;;3.43;100.00
44131;BME280;29792;48.726;9.248;2024-02-14T00:34:18;97325.31;;;3.43;100.00
44131;BME280;29792;48.726;9.248;2024-02-14T00:36:43;97316.00;;;3.44;100.00
44131;BME280;29792;48.726;9.248;2024-02-14T00:39:09;97319.38;;;3.44;100.00
44131;BME280;29792;48.726;9.248;2024-02-14T00:41:35;97317.66;;;3.45;100.00
44131;BME280;29792;48.726;9.248;2024-02-14T00:44:01;97317.66;;;3.45;100.00
44131;BME280;29792;48.726;9.248;2024-02-14T00:46:26;97324.28;;;3.48;100.00
44131;BME280;29792;48.726;9.248;2024-02-14T00:48:52;97321.59;;;3.51;100.00
44131;BME280;29792;48.726;9.248;2024-02-14T00:51:19;97315.44;;;3.56;100.00
44131;BME280;29792;48.726;9.248;2024-02-14T00:53:44;97320.34;;;3.59;100.00
44131;BME280;29792;48.726;9.248;2024-02-14T00:56:09;97317.63;;;3.64;100.00
44131;BME280;29792;48.726;9.248;2024-02-14T00:58:35;97326.56;;;3.71;100.00
44131;BME280;29792;48.726;9.248;2024-02-14T01:01:00;97328.66;;;3.80;100.00
44131;BME280;29792;48.726;9.248;2024-02-14T01:03:26;97329.19;;;3.87;100.00
44131;BME280;29792;48.726;9.248;2024-02-14T01:05:51;97330.53;;;3.94;100.00
44131;BME280;29792;48.726;9.248;2024-02-14T01:08:16;97336.09;;;4.00;100.00
44131;BME280;29792;48.726;9.248;2024-02-14T01:10:42;97337.44;;;4.07;100.00
44131;BME280;29792;48.726;9.248;2024-02-14T01:13:07;97336.34;;;4.13;100.00
44131;BME280;29792;48.726;9.248;2024-02-14T01:15:33;97332.59;;;4.20;100.00
44131;BME280;29792;48.726;9.248;2024-02-14T01:17:59;97334.06;;;4.24;100.00
44131;BME280;29792;48.726;9.248;2024-02-14T01:20:25;97335.50;;;4.30;100.00
44131;BME280;29792;48.726;9.248;2024-02-14T01:22:50;97338.69;;;4.33;100.00
44131;BME280;29792;48.726;9.248;2024-02-14T01:25:15;97333.47;;;4.36;100.00
44131;BME280;29792;48.726;9.248;2024-02-14T01:27:40;97330.78;;;4.39;100.00
44131;BME280;29792;48.726;9.248;2024-02-14T01:30:07;97333.09;;;4.44;100.00
44131;BME280;29792;48.726;9.248;2024-02-14T01:32:32;97332.91;;;4.47;100.00
44131;BME280;29792;48.726;9.248;2024-02-14T01:34:57;97331.97;;;4.49;100.00
44131;BME280;29792;48.726;9.248;2024-02-14T01:37:22;97334.34;;;4.52;100.00
44131;BME280;29792;48.726;9.248;2024-02-14T01:39:48;97335.06;;;4.54;100.00
44131;BME280;29792;48.726;9.248;2024-02-14T01:42:13;97325.59;;;4.58;100.00
44131;BME280;29792;48.726;9.248;2024-02-14T01:44:38;97321.28;;;4.60;100.00
44131;BME280;29792;48.726;9.248;2024-02-14T01:47:03;97314.41;;;4.62;100.00
44131;BME280;29792;48.726;9.248;2024-02-14T01:49:29;97309.97;;;4.66;100.00
44131;BME280;29792;48.726;9.248;2024-02-14T01:52:00;97313.09;;;4.71;100.00
44131;BME280;29792;48.726;9.248;2024-02-14T01:54:27;97309.66;;;4.72;100.00
44131;BME280;29792;48.726;9.248;2024-02-14T01:56:53;97309.66;;;4.72;100.00
44131;BME280;29792;48.726;9.248;2024-02-14T01:59:20;97316.38;;;4.73;100.00
44131;BME280;29792;48.726;9.248;2024-02-14T02:01:45;97318.97;;;4.71;100.00
44131;BME280;29792;48.726;9.248;2024-02-14T02:04:11;97318.91;;;4.73;100.00
44131;BME280;29792;48.726;9.248;2024-02-14T02:06:37;97322.28;;;4.73;100.00
44131;BME280;29792;48.726;9.248;2024-02-14T02:09:02;97317.94;;;4.75;100.00
44131;BME280;29792;48.726;9.248;2024-02-14T02:11:28;97315.34;;;4.77;100.00
44131;BME280;29792;48.726;9.248;2024-02-14T02:13:53;97317.78;;;4.78;100.00
44131;BME280;29792;48.726;9.248;2024-02-14T02:16:18;97319.34;;;4.81;100.00
44131;BME280;29792;48.726;9.248;2024-02-14T02:18:45;97312.47;;;4.83;100.00
44131;BME280;29792;48.726;9.248;2024-02-14T02:21:10;97314.09;;;4.84;100.00
44131;BME280;29792;48.726;9.248;2024-02-14T02:23:38;97312.38;;;4.84;100.00
44131;BME280;29792;48.726;9.248;2024-02-14T02:26:03;97307.41;;;4.83;100.00
44131;BME280;29792;48.726;9.248;2024-02-14T02:28:28;97292.41;;;4.78;100.00
44131;BME280;29792;48.726;9.248;2024-02-14T02:30:53;97304.28;;;4.78;100.00
44131;BME280;29792;48.726;9.248;2024-02-14T02:33:21;97306.91;;;4.76;100.00
44131;BME280;29792;48.726;9.248;2024-02-14T02:35:46;97296.00;;;4.74;100.00
44131;BME280;29792;48.726;9.248;2024-02-14T02:38:12;97292.66;;;4.74;100.00
44131;BME280;29792;48.726;9.248;2024-02-14T02:40:37;97285.09;;;4.72;100.00
44131;BME280;29792;48.726;9.248;2024-02-14T02:43:03;97298.69;;;4.71;100.00
44131;BME280;29792;48.726;9.248;2024-02-14T02:45:28;97297.16;;;4.69;100.00
44131;BME280;29792;48.726;9.248;2024-02-14T02:47:54;97294.69;;;4.67;100.00
44131;BME280;29792;48.726;9.248;2024-02-14T02:50:20;97284.63;;;4.66;100.00
44131;BME280;29792;48.726;9.248;2024-02-14T02:52:47;97285.75;;;4.60;100.00
44131;BME280;29792;48.726;9.248;2024-02-14T02:55:12;97277.56;;;4.55;100.00
44131;BME280;29792;48.726;9.248;2024-02-14T02:57:37;97277.81;;;4.50;100.00
44131;BME280;29792;48.726;9.248;2024-02-14T03:00:06;97274.50;;;4.48;100.00
44131;BME280;29792;48.726;9.248;2024-02-14T03:02:33;97280.47;;;4.47;100.00
44131;BME280;29792;48.726;9.248;2024-02-14T03:04:59;97262.97;;;4.43;100.00
44131;BME280;29792;48.726;9.248;2024-02-14T03:07:25;97257.09;;;4.42;100.00
44131;BME280;29792;48.726;9.248;2024-02-14T03:09:50;97252.84;;;4.43;100.00
44131;BME280;29792;48.726;9.248;2024-02-14T03:12:16;97247.75;;;4.43;100.00
44131;BME280;29792;48.726;9.248;2024-02-14T03:14:41;97246.28;;;4.39;100.00
44131;BME280;29792;48.726;9.248;2024-02-14T03:17:08;97250.69;;;4.35;100.00
44131;BME280;29792;48.726;9.248;2024-02-14T03:19:33;97257.47;;;4.35;100.00
44131;BME280;29792;48.726;9.248;2024-02-14T03:22:03;97254.19;;;4.33;100.00
44131;BME280;29792;48.726;9.248;2024-02-14T03:24:31;97258.63;;;4.29;100.00
44131;BME280;29792;48.726;9.248;2024-02-14T03:26:56;97254.53;;;4.27;100.00
44131;BME280;29792;48.726;9.248;2024-02-14T03:29:21;97260.47;;;4.26;100.00
44131;BME280;29792;48.726;9.248;2024-02-14T03:31:47;97267.34;;;4.23;100.00
44131;BME280;29792;48.726;9.248;2024-02-14T03:34:12;97277.72;;;4.19;100.00
44131;BME280;29792;48.726;9.248;2024-02-14T03:36:38;97293.97;;;4.15;100.00
44131;BME280;29792;48.726;9.248;2024-02-14T03:39:03;97289.72;;;4.15;100.00
44131;BME280;29792;48.726;9.248;2024-02-14T03:41:30;97299.88;;;4.15;100.00
44131;BME280;29792;48.726;9.248;2024-02-14T03:43:56;97305.75;;;4.16;100.00
44131;BME280;29792;48.726;9.248;2024-02-14T03:46:26;97305.75;;;4.16;100.00
44131;BME280;29792;48.726;9.248;2024-02-14T03:48:52;97299.03;;;4.15;100.00
44131;BME280;29792;48.726;9.248;2024-02-14T03:51:18;97307.63;;;4.12;100.00
44131;BME280;29792;48.726;9.248;2024-02-14T03:53:44;97310.25;;;4.11;100.00
44131;BME280;29792;48.726;9.248;2024-02-14T03:56:09;97306.81;;;4.12;100.00
44131;BME280;29792;48.726;9.248;2024-02-14T03:58:35;97307.72;;;4.11;100.00
44131;BME280;29792;48.726;9.248;2024-02-14T04:01:05;97304.28;;;4.12;100.00
44131;BME280;29792;48.726;9.248;2024-02-14T04:03:31;97314.41;;;4.12;100.00
44131;BME280;29792;48.726;9.248;2024-02-14T04:05:56;97322.03;;;4.12;100.00
44131;BME280;29792;48.726;9.248;2024-02-14T04:08:22;97316.06;;;4.13;100.00
44131;BME280;29792;48.726;9.248;2024-02-14T04:10:47;97311.72;;;4.15;100.00
44131;BME280;29792;48.726;9.248;2024-02-14T04:13:15;97310.81;;;4.16;100.00
44131;BME280;29792;48.726;9.248;2024-02-14T04:15:40;97309.94;;;4.17;100.00
44131;BME280;29792;48.726;9.248;2024-02-14T04:18:07;97309.19;;;4.15;100.00
44131;BME280;29792;48.726;9.248;2024-02-14T04:20:33;97309.28;;;4.13;100.00
44131;BME280;29792;48.726;9.248;2024-02-14T04:22:58;97311.19;;;4.08;100.00
44131;BME280;29792;48.726;9.248;2024-02-14T04:25:23;97303.84;;;4.04;100.00
44131;BME280;29792;48.726;9.248;2024-02-14T04:27:49;97302.34;;;4.00;100.00
44131;BME280;29792;48.726;9.248;2024-02-14T04:30:14;97306.66;;;3.98;100.00
44131;BME280;29792;48.726;9.248;2024-02-14T04:32:39;97312.63;;;3.97;100.00
44131;BME280;29792;48.726;9.248;2024-02-14T04:35:05;97309.50;;;3.92;100.00
44131;BME280;29792;48.726;9.248;2024-02-14T04:37:30;97304.66;;;3.87;100.00
44131;BME280;29792;48.726;9.248;2024-02-14T04:39:55;97303.16;;;3.83;100.00
44131;BME280;29792;48.726;9.248;2024-02-14T04:42:21;97310.09;;;3.79;100.00
44131;BME280;29792;48.726;9.248;2024-02-14T04:44:46;97307.06;;;3.73;100.00
44131;BME280;29792;48.726;9.248;2024-02-14T04:47:11;97313.81;;;3.72;100.00
44131;BME280;29792;48.726;9.248;2024-02-14T04:49:36;97313.91;;;3.71;100.00
44131;BME280;29792;48.726;9.248;2024-02-14T04:52:02;97319.72;;;3.73;100.00
44131;BME280;29792;48.726;9.248;2024-02-14T04:54:27;97323.97;;;3.72;100.00
44131;BME280;29792;48.726;9.248;2024-02-14T04:56:53;97316.38;;;3.72;100.00
44131;BME280;29792;48.726;9.248;2024-02-14T04:59:18;97317.97;;;3.73;100.00
44131;BME280;29792;48.726;9.248;2024-02-14T05:01:44;97323.03;;;3.73;100.00
44131;BME280;29792;48.726;9.248;2024-02-14T05:04:10;97328.88;;;3.75;100.00
44131;BME280;29792;48.726;9.248;2024-02-14T05:06:35;97331.25;;;3.78;100.00
44131;BME280;29792;48.726;9.248;2024-02-14T05:09:01;97333.63;;;3.81;100.00
44131;BME280;29792;48.726;9.248;2024-02-14T05:11:26;97336.91;;;3.83;100.00
44131;BME280;29792;48.726;9.248;2024-02-14T05:13:52;97330.97;;;3.84;100.00
44131;BME280;29792;48.726;9.248;2024-02-14T05:16:18;97332.59;;;3.86;100.00
44131;BME280;29792;48.726;9.248;2024-02-14T05:18:43;97332.59;;;3.86;100.00
44131;BME280;29792;48.726;9.248;2024-02-14T05:21:09;97325.88;;;3.84;100.00
44131;BME280;29792;48.726;9.248;2024-02-14T05:23:34;97318.34;;;3.83;100.00
44131;BME280;29792;48.726;9.248;2024-02-14T05:26:01;97324.31;;;3.82;100.00
44131;BME280;29792;48.726;9.248;2024-02-14T05:28:30;97316.00;;;3.80;100.00
44131;BME280;29792;48.726;9.248;2024-02-14T05:30:56;97320.16;;;3.81;100.00
44131;BME280;29792;48.726;9.248;2024-02-14T05:33:22;97322.53;;;3.84;100.00
44131;BME280;29792;48.726;9.248;2024-02-14T05:35:51;97326.72;;;3.85;100.00
44131;BME280;29792;48.726;9.248;2024-02-14T05:38:17;97325.00;;;3.86;100.00
44131;BME280;29792;48.726;9.248;2024-02-14T05:40:45;97321.56;;;3.87;100.00
44131;BME280;29792;48.726;9.248;2024-02-14T05:43:10;97314.72;;;3.89;100.00
44131;BME280;29792;48.726;9.248;2024-02-14T05:45:36;97308.75;;;3.90;100.00
44131;BME280;29792;48.726;9.248;2024-02-14T05:48:01;97315.38;;;3.92;100.00
44131;BME280;29792;48.726;9.248;2024-02-14T05:50:27;97328.88;;;3.93;100.00
44131;BME280;29792;48.726;9.248;2024-02-14T05:52:52;97321.28;;;3.93;100.00
44131;BME280;29792;48.726;9.248;2024-02-14T05:55:17;97322.03;;;3.95;100.00
44131;BME280;29792;48.726;9.248;2024-02-14T05:57:43;97314.34;;;3.96;100.00
44131;BME280;29792;48.726;9.248;2024-02-14T06:00:09;97319.31;;;3.98;100.00
44131;BME280;29792;48.726;9.248;2024-02-14T06:02:35;97325.22;;;3.98;100.00
44131;BME280;29792;48.726;9.248;2024-02-14T06:05:00;97320.97;;;3.99;100.00
44131;BME280;29792;48.726;9.248;2024-02-14T06:07:26;97315.06;;;3.98;100.00
44131;BME280;29792;48.726;9.248;2024-02-14T06:09:51;97326.78;;;4.01;100.00
44131;BME280;29792;48.726;9.248;2024-02-14T06:12:16;97322.53;;;4.01;100.00
44131;BME280;29792;48.726;9.248;2024-02-14T06:14:41;97322.41;;;4.04;100.00
44131;BME280;29792;48.726;9.248;2024-02-14T06:17:07;97320.75;;;4.03;100.00
44131;BME280;29792;48.726;9.248;2024-02-14T06:19:32;97320.75;;;4.03;100.00
44131;BME280;29792;48.726;9.248;2024-02-14T06:21:58;97319.88;;;4.04;100.00
44131;BME280;29792;48.726;9.248;2024-02-14T06:24:24;97324.03;;;4.05;100.00
44131;BME280;29792;48.726;9.248;2024-02-14T06:26:49;97325.75;;;4.05;100.00
44131;BME280;29792;48.726;9.248;2024-02-14T06:29:15;97324.94;;;4.04;100.00
44131;BME280;29792;48.726;9.248;2024-02-14T06:31:40;97318.28;;;4.02;100.00
44131;BME280;29792;48.726;9.248;2024-02-14T06:34:05;97324.94;;;4.04;100.00
44131;BME280;29792;48.726;9.248;2024-02-14T06:36:32;97327.47;;;4.04;100.00
44131;BME280;29792;48.726;9.248;2024-02-14T06:38:57;97332.53;;;4.04;100.00
44131;BME280;29792;48.726;9.248;2024-02-14T06:41:23;97333.38;;;4.05;100.00
44131;BME280;29792;48.726;9.248;2024-02-14T06:43:48;97334.97;;;4.06;100.00
44131;BME280;29792;48.726;9.248;2024-02-14T06:46:14;97335.06;;;4.04;100.00
44131;BME280;29792;48.726;9.248;2024-02-14T06:48:39;97334.97;;;4.06;100.00
44131;BME280;29792;48.726;9.248;2024-02-14T06:51:06;97340.78;;;4.08;100.00
44131;BME280;29792;48.726;9.248;2024-02-14T06:53:32;97341.47;;;4.11;100.00
44131;BME280;29792;48.726;9.248;2024-02-14T06:55:57;97336.16;;;4.16;100.00
44131;BME280;29792;48.726;9.248;2024-02-14T06:58:22;97336.84;;;4.19;100.00
44131;BME280;29792;48.726;9.248;2024-02-14T07:00:48;97334.91;;;4.25;100.00
44131;BME280;29792;48.726;9.248;2024-02-14T07:03:13;97341.38;;;4.30;100.00
44131;BME280;29792;48.726;9.248;2024-02-14T07:05:38;97332.66;;;4.36;100.00
44131;BME280;29792;48.726;9.248;2024-02-14T07:08:04;97327.34;;;4.40;100.00
44131;BME280;29792;48.726;9.248;2024-02-14T07:10:30;97328.03;;;4.44;100.00
44131;BME280;29792;48.726;9.248;2024-02-14T07:12:55;97331.22;;;4.47;100.00
44131;BME280;29792;48.726;9.248;2024-02-14T07:15:20;97328.53;;;4.50;100.00
44131;BME280;29792;48.726;9.248;2024-02-14T07:17:46;97337.53;;;4.56;100.00
44131;BME280;29792;48.726;9.248;2024-02-14T07:20:11;97336.25;;;4.65;100.00
44131;BME280;29792;48.726;9.248;2024-02-14T07:22:37;97336.59;;;4.74;100.00
44131;BME280;29792;48.726;9.248;2024-02-14T07:25:03;97336.06;;;4.85;100.00
44131;BME280;29792;48.726;9.248;2024-02-14T07:27:30;97348.91;;;4.97;100.00
44131;BME280;29792;48.726;9.248;2024-02-14T07:29:55;97348.09;;;5.13;100.00
44131;BME280;29792;48.726;9.248;2024-02-14T07:32:20;97346.56;;;5.26;100.00
44131;BME280;29792;48.726;9.248;2024-02-14T07:34:46;97351.72;;;5.40;100.00
44131;BME280;29792;48.726;9.248;2024-02-14T07:37:12;97346.06;;;5.51;100.00
44131;BME280;29792;48.726;9.248;2024-02-14T07:39:37;97352.44;;;5.58;100.00
44131;BME280;29792;48.726;9.248;2024-02-14T07:42:03;97356.84;;;5.70;100.00
44131;BME280;29792;48.726;9.248;2024-02-14T07:44:28;97356.34;;;5.79;100.00
44131;BME280;29792;48.726;9.248;2024-02-14T07:46:53;97359.28;;;5.87;100.00
44131;BME280;29792;48.726;9.248;2024-02-14T07:49:19;97356.34;;;5.95;100.00
44131;BME280;29792;48.726;9.248;2024-02-14T07:51:45;97360.09;;;6.03;100.00
44131;BME280;29792;48.726;9.248;2024-02-14T07:54:10;97364.81;;;6.09;100.00
44131;BME280;29792;48.726;9.248;2024-02-14T07:56:36;97363.91;;;6.10;100.00
44131;BME280;29792;48.726;9.248;2024-02-14T07:59:01;97376.41;;;6.15;100.00
44131;BME280;29792;48.726;9.248;2024-02-14T08:01:26;97375.22;;;6.21;100.00
44131;BME280;29792;48.726;9.248;2024-02-14T08:03:52;97379.94;;;6.27;100.00
44131;BME280;29792;48.726;9.248;2024-02-14T08:06:17;97382.25;;;6.31;100.00
44131;BME280;29792;48.726;9.248;2024-02-14T08:08:42;97386.97;;;6.37;100.00
44131;BME280;29792;48.726;9.248;2024-02-14T08:11:09;97382.44;;;6.42;100.00
44131;BME280;29792;48.726;9.248;2024-02-14T08:13:34;97385.44;;;6.49;100.00
44131;BME280;29792;48.726;9.248;2024-02-14T08:15:59;97388.47;;;6.56;100.00
44131;BME280;29792;48.726;9.248;2024-02-14T08:18:25;97399.13;;;6.62;100.00
44131;BME280;29792;48.726;9.248;2024-02-14T08:20:52;97390.28;;;6.68;100.00
44131;BME280;29792;48.726;9.248;2024-02-14T08:23:17;97397.75;;;6.71;100.00
44131;BME280;29792;48.726;9.248;2024-02-14T08:25:42;97398.28;;;6.76;100.00
44131;BME280;29792;48.726;9.248;2024-02-14T08:28:09;97397.03;;;6.83;100.00
44131;BME280;29792;48.726;9.248;2024-02-14T08:30:34;97395.66;;;6.92;100.00
44131;BME280;29792;48.726;9.248;2024-02-14T08:33:00;97396.94;;;6.99;100.00
44131;BME280;29792;48.726;9.248;2024-02-14T08:35:25;97404.13;;;7.06;100.00
44131;BME280;29792;48.726;9.248;2024-02-14T08:37:50;97417.50;;;7.10;100.00
44131;BME280;29792;48.726;9.248;2024-02-14T08:40:15;97410.84;;;7.07;100.00
44131;BME280;29792;48.726;9.248;2024-02-14T08:42:41;97410.59;;;7.12;100.00
44131;BME280;29792;48.726;9.248;2024-02-14T08:45:06;97411.22;;;7.15;100.00
44131;BME280;29792;48.726;9.248;2024-02-14T08:47:32;97411.78;;;7.20;100.00
44131;BME280;29792;48.726;9.248;2024-02-14T08:49:57;97405.03;;;7.34;100.00
44131;BME280;29792;48.726;9.248;2024-02-14T08:52:22;97399.19;;;7.46;100.00
44131;BME280;29792;48.726;9.248;2024-02-14T08:54:48;97396.25;;;7.52;100.00
44131;BME280;29792;48.726;9.248;2024-02-14T08:57:13;97399.97;;;7.60;100.00
44131;BME280;29792;48.726;9.248;2024-02-14T08:59:38;97400.50;;;7.65;100.00
44131;BME280;29792;48.726;9.248;2024-02-14T09:02:04;97396.22;;;7.66;100.00
44131;BME280;29792;48.726;9.248;2024-02-14T09:04:29;97393.66;;;7.66;100.00
44131;BME280;29792;48.726;9.248;2024-02-14T09:06:54;97393.38;;;7.71;100.00
44131;BME280;29792;48.726;9.248;2024-02-14T09:09:20;97393.69;;;7.79;100.00
44131;BME280;29792;48.726;9.248;2024-02-14T09:11:45;97397.22;;;7.90;100.00
44131;BME280;29792;48.726;9.248;2024-02-14T09:14:12;97392.97;;;8.03;100.00
44131;BME280;29792;48.726;9.248;2024-02-14T09:16:37;97388.09;;;8.13;100.00
44131;BME280;29792;48.726;9.248;2024-02-14T09:19:03;97384.06;;;8.23;100.00
44131;BME280;29792;48.726;9.248;2024-02-14T09:21:30;97403.69;;;8.35;100.00
44131;BME280;29792;48.726;9.248;2024-02-14T09:23:56;97402.28;;;8.44;100.00
44131;BME280;29792;48.726;9.248;2024-02-14T09:26:21;97398.31;;;8.53;100.00
44131;BME280;29792;48.726;9.248;2024-02-14T09:28:46;97404.44;;;8.63;100.00
44131;BME280;29792;48.726;9.248;2024-02-14T09:31:17;97405.59;;;8.71;100.00
44131;BME280;29792;48.726;9.248;2024-02-14T09:33:42;97414.28;;;8.82;100.00
44131;BME280;29792;48.726;9.248;2024-02-14T09:36:07;97409.16;;;8.94;100.00
44131;BME280;29792;48.726;9.248;2024-02-14T09:38:33;97404.66;;;9.10;100.00
44131;BME280;29792;48.726;9.248;2024-02-14T09:41:06;97405.88;;;9.30;100.00
44131;BME280;29792;48.726;9.248;2024-02-14T09:43:38;97411.56;;;9.46;100.00
44131;BME280;29792;48.726;9.248;2024-02-14T09:46:06;97412.03;;;9.64;99.94
44131;BME280;29792;48.726;9.248;2024-02-14T09:48:32;97406.50;;;9.81;98.80
44131;BME280;29792;48.726;9.248;2024-02-14T09:50:58;97405.13;;;10.01;98.46
44131;BME280;29792;48.726;9.248;2024-02-14T09:53:25;97401.16;;;10.21;97.17
44131;BME280;29792;48.726;9.248;2024-02-14T09:55:51;97392.63;;;10.44;95.99
44131;BME280;29792;48.726;9.248;2024-02-14T09:58:17;97396.63;;;10.70;95.92
44131;BME280;29792;48.726;9.248;2024-02-14T10:00:43;97398.16;;;10.95;95.33
44131;BME280;29792;48.726;9.248;2024-02-14T10:03:08;97397.94;;;11.21;93.65
44131;BME280;29792;48.726;9.248;2024-02-14T10:05:34;97400.13;;;11.47;93.29
44131;BME280;29792;48.726;9.248;2024-02-14T10:08:00;97394.66;;;11.74;93.01
44131;BME280;29792;48.726;9.248;2024-02-14T10:10:26;97397.47;;;12.03;91.31
44131;BME280;29792;48.726;9.248;2024-02-14T10:12:54;97397.72;;;12.32;90.29
44131;BME280;29792;48.726;9.248;2024-02-14T10:15:20;97393.00;;;12.58;89.43
44131;BME280;29792;48.726;9.248;2024-02-14T10:17:45;97397.22;;;12.89;88.50
44131;BME280;29792;48.726;9.248;2024-02-14T10:20:16;97386.88;;;13.21;86.00
44131;BME280;29792;48.726;9.248;2024-02-14T10:22:42;97390.91;;;13.64;85.86
44131;BME280;29792;48.726;9.248;2024-02-14T10:25:07;97387.97;;;13.97;82.79
44131;BME280;29792;48.726;9.248;2024-02-14T10:27:37;97392.22;;;14.18;79.10
44131;BME280;29792;48.726;9.248;2024-02-14T10:30:05;97388.00;;;14.45;77.74
44131;BME280;29792;48.726;9.248;2024-02-14T10:32:33;97388.56;;;15.33;78.53
44131;BME280;29792;48.726;9.248;2024-02-14T10:34:58;97373.03;;;16.23;75.51
44131;BME280;29792;48.726;9.248;2024-02-14T10:37:26;97375.97;;;16.89;71.51
44131;BME280;29792;48.726;9.248;2024-02-14T10:39:55;97383.34;;;17.86;68.96
44131;BME280;29792;48.726;9.248;2024-02-14T10:42:21;97395.41;;;18.76;63.66
44131;BME280;29792;48.726;9.248;2024-02-14T10:44:46;97389.97;;;19.18;60.10
44131;BME280;29792;48.726;9.248;2024-02-14T10:47:19;97397.34;;;18.66;56.12
44131;BME280;29792;48.726;9.248;2024-02-14T10:49:47;97378.84;;;17.96;56.78
44131;BME280;29792;48.726;9.248;2024-02-14T10:52:16;97380.78;;;18.51;59.44
44131;BME280;29792;48.726;9.248;2024-02-14T10:54:42;97379.19;;;19.37;58.08
44131;BME280;29792;48.726;9.248;2024-02-14T10:57:08;97376.59;;;19.76;53.81
44131;BME280;29792;48.726;9.248;2024-02-14T10:59:40;97376.66;;;19.60;54.53
44131;BME280;29792;48.726;9.248;2024-02-14T11:02:07;97385.69;;;19.33;52.85
44131;BME280;29792;48.726;9.248;2024-02-14T11:04:33;97381.47;;;18.37;53.17
44131;BME280;29792;48.726;9.248;2024-02-14T11:06:58;97383.00;;;17.73;54.96
44131;BME280;29792;48.726;9.248;2024-02-14T11:09:36;97399.53;;;17.38;56.44
44131;BME280;29792;48.726;9.248;2024-02-14T11:12:01;97402.81;;;17.14;57.11
44131;BME280;29792;48.726;9.248;2024-02-14T11:14:31;97404.81;;;16.94;58.46
44131;BME280;29792;48.726;9.248;2024-02-14T11:16:59;97409.00;;;16.95;59.24
44131;BME280;29792;48.726;9.248;2024-02-14T11:19:30;97400.50;;;16.59;58.51
44131;BME280;29792;48.726;9.248;2024-02-14T11:21:59;97405.78;;;15.96;59.24
44131;BME280;29792;48.726;9.248;2024-02-14T11:24:28;97400.59;;;15.42;61.74
44131;BME280;29792;48.726;9.248;2024-02-14T11:26:55;97402.16;;;14.98;62.67
44131;BME280;29792;48.726;9.248;2024-02-14T11:29:21;97401.44;;;14.59;64.68
44131;BME280;29792;48.726;9.248;2024-02-14T11:31:47;97406.56;;;14.30;65.57
44131;BME280;29792;48.726;9.248;2024-02-14T11:34:16;97411.84;;;13.99;67.30
44131;BME280;29792;48.726;9.248;2024-02-14T11:36:43;97398.13;;;13.80;68.96
44131;BME280;29792;48.726;9.248;2024-02-14T11:39:09;97395.69;;;13.68;70.33
44131;BME280;29792;48.726;9.248;2024-02-14T11:41:35;97397.16;;;13.61;71.46
44131;BME280;29792;48.726;9.248;2024-02-14T11:44:03;97396.31;;;13.51;71.55
44131;BME280;29792;48.726;9.248;2024-02-14T11:46:30;97404.13;;;13.40;72.05
44131;BME280;29792;48.726;9.248;2024-02-14T11:48:56;97400.44;;;13.33;73.33
44131;BME280;29792;48.726;9.248;2024-02-14T11:51:22;97395.44;;;13.31;74.11
44131;BME280;29792;48.726;9.248;2024-02-14T11:53:48;97391.91;;;13.32;74.95
44131;BME280;29792;48.726;9.248;2024-02-14T11:56:14;97387.16;;;13.28;74.61
44131;BME280;29792;48.726;9.248;2024-02-14T11:58:40;97386.34;;;13.27;75.76
44131;BME280;29792;48.726;9.248;2024-02-14T12:01:05;97390.41;;;13.30;76.54
44131;BME280;29792;48.726;9.248;2024-02-14T12:03:30;97381.91;;;13.29;77.42
44131;BME280;29792;48.726;9.248;2024-02-14T12:05:56;97382.16;;;13.26;77.09
44131;BME280;29792;48.726;9.248;2024-02-14T12:08:22;97391.22;;;13.30;77.40
44131;BME280;29792;48.726;9.248;2024-02-14T12:10:48;97383.97;;;13.45;78.81
44131;BME280;29792;48.726;9.248;2024-02-14T12:13:19;97383.19;;;13.64;78.83
44131;BME280;29792;48.726;9.248;2024-02-14T12:15:46;97386.88;;;13.81;78.34
44131;BME280;29792;48.726;9.248;2024-02-14T12:18:12;97379.84;;;13.92;78.25
44131;BME280;29792;48.726;9.248;2024-02-14T12:20:41;97379.69;;;14.03;77.55
44131;BME280;29792;48.726;9.248;2024-02-14T12:23:07;97386.88;;;14.19;78.20
44131;BME280;29792;48.726;9.248;2024-02-14T12:25:33;97380.25;;;14.45;78.56
44131;BME280;29792;48.726;9.248;2024-02-14T12:27:59;97389.59;;;14.66;76.38
44131;BME280;29792;48.726;9.248;2024-02-14T12:30:45;97392.44;;;14.82;75.02
44131;BME280;29792;48.726;9.248;2024-02-14T12:33:14;97391.59;;;14.91;73.19
44131;BME280;29792;48.726;9.248;2024-02-14T12:35:44;97394.00;;;14.93;73.30
44131;BME280;29792;48.726;9.248;2024-02-14T12:38:10;97382.88;;;14.92;73.08
44131;BME280;29792;48.726;9.248;2024-02-14T12:40:36;97382.75;;;14.94;73.25
44131;BME280;29792;48.726;9.248;2024-02-14T12:43:01;97376.22;;;14.99;73.19
44131;BME280;29792;48.726;9.248;2024-02-14T12:45:27;97374.94;;;15.13;73.17
44131;BME280;29792;48.726;9.248;2024-02-14T12:47:52;97364.00;;;15.28;72.12
44131;BME280;29792;48.726;9.248;2024-02-14T12:50:18;97366.69;;;15.37;71.09
44131;BME280;29792;48.726;9.248;2024-02-14T12:52:45;97367.34;;;15.39;71.56